createdAt,value
2018-02-22T00:00:22.798Z,58.20
2018-02-22T00:02:51.101Z,51.70
2018-02-22T00:05:18.648Z,54.37
2018-02-22T00:07:46.975Z,61.77
2018-02-22T00:10:14.541Z,51.33
2018-02-22T00:12:42.865Z,55.37
2018-02-22T00:15:10.430Z,58.27
2018-02-22T00:17:37.978Z,60.17
2018-02-22T00:20:06.314Z,57.80
2018-02-22T00:22:33.870Z,52.90
2018-02-22T00:25:01.464Z,59.23
2018-02-22T00:27:29.760Z,51.93
2018-02-22T00:29:57.327Z,53.93
2018-02-22T00:32:24.881Z,62.90
2018-02-22T00:34:52.437Z,50.23
2018-02-22T00:37:20.006Z,55.20
2018-02-22T00:39:47.574Z,56.43
2018-02-22T00:42:15.108Z,58.27
2018-02-22T00:44:43.442Z,52.33
2018-02-22T00:47:10.975Z,54.87
2018-02-22T00:49:38.531Z,59.33
2018-02-22T00:52:06.077Z,50.17
2018-02-22T00:54:33.615Z,55.03
2018-02-22T00:57:01.946Z,54.10
2018-02-22T00:59:29.497Z,50.27
2018-02-22T01:01:57.038Z,58.90
2018-02-22T01:04:24.614Z,56.70
2018-02-22T01:06:52.159Z,50.50
2018-02-22T01:09:19.728Z,49.87
2018-02-22T01:11:47.303Z,65.20
2018-02-22T01:14:14.870Z,52.93
2018-02-22T01:16:42.400Z,60.10
2018-02-22T01:19:09.950Z,48.50
2018-02-22T01:21:37.574Z,60.30
2018-02-22T01:24:05.101Z,57.73
2018-02-22T01:26:32.664Z,52.23
2018-02-22T01:29:00.243Z,58.30
2018-02-22T01:31:27.784Z,57.80
2018-02-22T01:33:55.341Z,49.50
2018-02-22T01:36:22.912Z,56.63
2018-02-22T01:38:50.467Z,57.90
2018-02-22T01:41:18.128Z,56.30
2018-02-22T01:46:19.658Z,47.20
2018-02-22T01:48:47.204Z,55.13
2018-02-22T01:51:14.778Z,55.80
2018-02-22T01:53:42.327Z,59.00
2018-02-22T01:56:10.658Z,50.27
2018-02-22T01:58:38.225Z,53.67
2018-02-22T02:01:05.747Z,59.07
2018-02-22T02:03:33.294Z,56.13
2018-02-22T02:06:00.845Z,55.50
2018-02-22T02:08:29.166Z,58.13
2018-02-22T02:10:56.704Z,55.00
2018-02-22T02:13:24.290Z,58.63
2018-02-22T02:15:51.836Z,62.50
2018-02-22T02:18:19.409Z,49.57
2018-02-22T02:20:46.975Z,51.53
2018-02-22T02:23:14.515Z,52.60
2018-02-22T02:25:42.075Z,58.97
2018-02-22T02:28:09.626Z,52.83
2018-02-22T02:30:37.178Z,58.17
2018-02-22T02:33:04.713Z,54.83
2018-02-22T02:35:33.035Z,55.33
2018-02-22T02:38:00.586Z,61.63
2018-02-22T02:40:28.133Z,56.70
2018-02-22T02:42:55.689Z,57.33
2018-02-22T02:45:23.264Z,60.00
2018-02-22T02:47:50.803Z,50.20
2018-02-22T02:50:18.349Z,52.30
2018-02-22T02:52:45.902Z,49.80
2018-02-22T02:55:14.200Z,59.60
2018-02-22T02:57:41.774Z,55.03
2018-02-22T03:00:09.334Z,59.13
2018-02-22T03:02:36.893Z,58.00
2018-02-22T03:05:04.436Z,55.60
2018-02-22T03:07:31.988Z,54.13
2018-02-22T03:09:59.547Z,59.93
2018-02-22T03:15:01.017Z,59.50
2018-02-22T03:17:29.347Z,55.40
2018-02-22T03:19:56.897Z,55.40
2018-02-22T03:22:24.468Z,58.63
2018-02-22T03:24:52.029Z,61.00
2018-02-22T03:27:19.564Z,55.10
2018-02-22T03:29:47.122Z,52.60
2018-02-22T03:32:14.641Z,59.23
2018-02-22T03:34:42.954Z,66.63
2018-02-22T03:37:10.482Z,60.03
2018-02-22T03:39:38.042Z,55.17
2018-02-22T03:42:06.341Z,55.17
2018-02-22T03:44:33.884Z,56.87
2018-02-22T03:47:01.429Z,54.93
2018-02-22T03:49:29.750Z,57.37
2018-02-22T03:51:57.297Z,54.23
2018-02-22T03:54:25.081Z,56.77
2018-02-22T03:56:52.601Z,58.93
2018-02-22T03:59:20.241Z,59.90
2018-02-22T04:01:47.868Z,60.73
2018-02-22T04:04:15.479Z,54.80
2018-02-22T04:06:43.925Z,61.43
2018-02-22T04:09:11.571Z,52.17
2018-02-22T04:11:39.191Z,54.03
2018-02-22T04:14:07.552Z,52.60
2018-02-22T04:16:35.225Z,53.30
2018-02-22T04:19:03.662Z,47.27
2018-02-22T04:21:31.354Z,57.30
2018-02-22T04:23:58.926Z,55.40
2018-02-22T04:26:27.302Z,63.23
2018-02-22T04:28:55.776Z,52.80
2018-02-22T04:31:24.155Z,55.97
2018-02-22T04:33:51.775Z,53.07
2018-02-22T04:36:20.185Z,51.23
2018-02-22T04:38:47.870Z,49.10
2018-02-22T04:41:16.260Z,54.50
2018-02-22T04:43:43.863Z,48.17
2018-02-22T04:46:11.427Z,55.67
2018-02-22T04:48:39.021Z,54.87
2018-02-22T04:51:06.588Z,56.87
2018-02-22T04:53:34.242Z,53.90
2018-02-22T04:56:01.877Z,51.17
2018-02-22T04:58:29.557Z,58.60
2018-02-22T05:00:57.200Z,54.60
2018-02-22T05:03:24.806Z,50.20
2018-02-22T05:05:52.409Z,57.47
2018-02-22T05:08:20.035Z,55.30
2018-02-22T05:10:47.620Z,59.67
2018-02-22T05:13:15.263Z,61.87
2018-02-22T05:15:43.364Z,55.50
2018-02-22T05:18:10.962Z,52.50
2018-02-22T05:20:38.488Z,53.77
2018-02-22T05:23:06.074Z,54.97
2018-02-22T05:25:33.717Z,54.70
2018-02-22T05:28:01.299Z,52.83
2018-02-22T05:30:28.851Z,54.00
2018-02-22T05:32:56.484Z,59.03
2018-02-22T05:35:24.102Z,54.60
2018-02-22T05:37:52.514Z,57.07
2018-02-22T05:40:20.093Z,59.87
2018-02-22T05:42:47.746Z,47.40
2018-02-22T05:45:15.280Z,55.63
2018-02-22T05:47:42.856Z,61.20
2018-02-22T05:50:10.390Z,51.87
2018-02-22T05:52:37.989Z,57.60
2018-02-22T05:55:05.510Z,54.80
2018-02-22T05:57:33.028Z,65.87
2018-02-22T06:00:00.522Z,60.53
2018-02-22T06:02:28.778Z,50.83
2018-02-22T06:04:57.074Z,48.17
2018-02-22T06:07:25.336Z,49.40
2018-02-22T06:09:53.578Z,53.50
2018-02-22T06:12:21.259Z,56.30
2018-02-22T06:14:48.755Z,43.80
2018-02-22T06:17:16.249Z,44.90
2018-02-22T06:19:43.748Z,52.50
2018-02-22T06:22:11.354Z,56.80
2018-02-22T06:24:38.936Z,49.17
2018-02-22T06:27:06.574Z,48.77
2018-02-22T06:29:34.077Z,45.07
2018-02-22T06:32:01.690Z,43.90
2018-02-22T06:34:29.371Z,48.37
2018-02-22T06:36:57.191Z,48.60
2018-02-22T06:39:24.857Z,55.50
2018-02-22T06:41:52.374Z,49.33
2018-02-22T06:44:19.881Z,52.87
2018-02-22T06:46:47.379Z,44.90
2018-02-22T06:49:14.879Z,49.43
2018-02-22T06:51:43.142Z,52.50
2018-02-22T06:54:10.646Z,51.00
2018-02-22T06:56:38.123Z,55.07
2018-02-22T06:59:05.615Z,52.30
2018-02-22T07:01:33.100Z,47.47
2018-02-22T07:04:00.620Z,51.40
2018-02-22T07:06:28.097Z,46.20
2018-02-22T07:08:55.599Z,45.90
2018-02-22T07:11:23.094Z,44.43
2018-02-22T07:13:50.591Z,46.93
2018-02-22T07:16:18.845Z,51.43
2018-02-22T07:18:46.333Z,51.93
2018-02-22T07:21:13.909Z,49.60
2018-02-22T07:23:41.485Z,42.73
2018-02-22T07:26:09.026Z,47.47
2018-02-22T07:28:36.612Z,52.17
2018-02-22T07:31:04.107Z,46.13
2018-02-22T07:33:31.616Z,43.10
2018-02-22T07:35:59.144Z,42.43
2018-02-22T07:38:26.655Z,42.53
2018-02-22T07:40:54.156Z,47.30
2018-02-22T07:43:22.431Z,42.20
2018-02-22T07:45:50.671Z,44.73
2018-02-22T07:48:18.160Z,47.80
2018-02-22T07:50:46.431Z,49.30
2018-02-22T07:53:13.927Z,50.30
2018-02-22T07:55:41.428Z,43.47
2018-02-22T07:58:08.924Z,39.20
2018-02-22T08:00:36.430Z,40.23
2018-02-22T08:03:03.916Z,41.10
2018-02-22T08:05:31.410Z,52.60
2018-02-22T08:07:58.892Z,42.50
2018-02-22T08:10:26.396Z,41.43
2018-02-22T08:12:54.637Z,41.67
2018-02-22T08:15:22.179Z,44.73
2018-02-22T08:17:49.646Z,34.47
2018-02-22T08:20:17.150Z,38.13
2018-02-22T08:22:45.410Z,36.20
2018-02-22T08:25:12.898Z,40.77
2018-02-22T08:27:40.378Z,40.43
2018-02-22T08:30:10.482Z,38.27
2018-02-22T08:32:38.217Z,40.30
2018-02-22T08:35:05.735Z,40.87
2018-02-22T08:37:33.224Z,41.03
2018-02-22T08:40:00.745Z,72.83
2018-02-22T08:42:28.236Z,37.20
2018-02-22T08:44:55.721Z,38.93
2018-02-22T08:47:23.977Z,45.03
2018-02-22T08:49:51.464Z,39.63
2018-02-22T08:52:19.705Z,41.90
2018-02-22T08:54:47.194Z,33.60
2018-02-22T08:57:15.452Z,36.40
2018-02-22T08:59:42.959Z,48.00
2018-02-22T09:02:10.442Z,34.50
2018-02-22T09:04:37.935Z,38.77
2018-02-22T09:07:06.205Z,43.40
2018-02-22T09:09:33.725Z,41.00
2018-02-22T09:12:01.264Z,40.47
2018-02-22T09:14:28.825Z,44.13
2018-02-22T09:16:56.348Z,39.43
2018-02-22T09:19:24.631Z,42.23
2018-02-22T09:21:52.910Z,37.80
2018-02-22T09:24:21.222Z,41.20
2018-02-22T09:26:48.800Z,41.43
2018-02-22T09:29:16.327Z,45.63
2018-02-22T09:31:43.862Z,40.10
2018-02-22T09:34:12.190Z,40.07
2018-02-22T09:36:39.716Z,38.90
2018-02-22T09:39:07.244Z,40.63
2018-02-22T09:41:34.763Z,40.20
2018-02-22T09:44:02.310Z,38.90
2018-02-22T09:46:29.876Z,44.23
2018-02-22T09:48:58.135Z,42.50
2018-02-22T09:51:25.660Z,42.97
2018-02-22T09:53:53.979Z,46.43
2018-02-22T09:56:21.521Z,38.10
2018-02-22T09:58:49.054Z,42.13
2018-02-22T10:01:17.370Z,44.50
2018-02-22T10:03:44.897Z,40.27
2018-02-22T10:06:13.267Z,42.10
2018-02-22T10:08:40.752Z,44.43
2018-02-22T10:11:08.306Z,38.93
2018-02-22T10:13:36.105Z,42.50
2018-02-22T10:16:03.637Z,36.00
2018-02-22T10:18:31.321Z,43.40
2018-02-22T10:20:58.886Z,43.60
2018-02-22T10:23:26.480Z,47.00
2018-02-22T10:25:54.190Z,43.43
2018-02-22T10:28:21.887Z,43.47
2018-02-22T10:30:49.516Z,41.30
2018-02-22T10:33:17.137Z,40.53
2018-02-22T10:35:44.677Z,40.63
2018-02-22T10:38:12.302Z,45.40
2018-02-22T10:40:40.581Z,42.10
2018-02-22T10:43:08.128Z,43.63
2018-02-22T10:45:35.779Z,44.10
2018-02-22T10:48:04.086Z,42.23
2018-02-22T10:50:31.610Z,41.27
2018-02-22T10:52:59.292Z,42.60
2018-02-22T10:55:26.863Z,45.87
2018-02-22T10:57:54.380Z,45.37
2018-02-22T11:00:28.397Z,43.83
2018-02-22T11:02:56.697Z,47.23
2018-02-22T11:05:24.237Z,44.93
2018-02-22T11:07:52.551Z,44.23
2018-02-22T11:10:20.072Z,42.37
2018-02-22T11:12:48.361Z,42.30
2018-02-22T11:15:15.943Z,41.90
2018-02-22T11:17:43.481Z,42.80
2018-02-22T11:20:11.067Z,39.80
2018-02-22T11:22:38.619Z,49.03
2018-02-22T11:25:06.190Z,51.33
2018-02-22T11:27:33.735Z,51.80
2018-02-22T11:30:01.271Z,45.33
2018-02-22T11:32:28.781Z,46.13
2018-02-22T11:34:56.476Z,43.40
2018-02-22T11:37:25.321Z,44.10
2018-02-22T11:39:52.816Z,42.90
2018-02-22T11:42:20.546Z,44.03
2018-02-22T11:44:48.141Z,49.77
2018-02-22T11:47:15.675Z,44.77
2018-02-22T11:49:43.186Z,42.90
2018-02-22T11:52:10.741Z,46.10
2018-02-22T11:54:39.029Z,51.13
2018-02-22T11:57:06.631Z,37.27
2018-02-22T11:59:34.218Z,46.93
2018-02-22T12:02:03.709Z,41.87
2018-02-22T12:04:31.265Z,43.10
2018-02-22T12:06:58.831Z,43.43
2018-02-22T12:09:26.385Z,46.70
2018-02-22T12:11:53.917Z,43.73
2018-02-22T12:14:21.493Z,43.80
2018-02-22T12:16:49.066Z,45.43
2018-02-22T12:19:16.588Z,42.37
2018-02-22T12:21:44.147Z,44.50
2018-02-22T12:24:11.759Z,42.00
2018-02-22T12:29:13.364Z,46.73
2018-02-22T12:31:40.908Z,46.30
2018-02-22T12:34:08.441Z,38.53
2018-02-22T12:36:37.601Z,40.33
2018-02-22T12:39:05.174Z,38.90
2018-02-22T12:41:32.708Z,36.10
2018-02-22T12:44:00.276Z,49.17
2018-02-22T12:46:27.793Z,86.67
2018-02-22T12:48:55.344Z,42.70
2018-02-22T12:51:22.899Z,42.33
2018-02-22T12:53:50.440Z,44.60
2018-02-22T12:56:18.015Z,38.80
2018-02-22T12:58:45.579Z,34.63
2018-02-22T13:01:13.107Z,43.33
2018-02-22T13:03:40.621Z,33.83
2018-02-22T13:06:08.276Z,36.00
2018-02-22T13:08:35.825Z,40.33
2018-02-22T13:11:03.395Z,37.20
2018-02-22T13:13:31.715Z,40.23
2018-02-22T13:15:59.253Z,41.53
2018-02-22T13:18:26.832Z,37.37
2018-02-22T13:20:54.364Z,35.83
2018-02-22T13:23:21.918Z,37.23
2018-02-22T13:25:49.464Z,35.70
2018-02-22T13:28:17.794Z,39.10
2018-02-22T13:30:45.328Z,36.03
2018-02-22T13:33:24.563Z,34.67
2018-02-22T13:35:52.069Z,32.90
2018-02-22T13:41:21.301Z,37.13
2018-02-22T13:43:48.762Z,33.10
2018-02-22T13:46:16.232Z,36.27
2018-02-22T13:48:56.444Z,35.77
2018-02-22T13:51:23.910Z,35.40
2018-02-22T13:53:51.374Z,36.93
2018-02-22T13:59:19.485Z,35.60
2018-02-22T14:01:58.966Z,31.53
2018-02-22T14:04:26.455Z,33.73
2018-02-22T14:06:53.976Z,33.93
2018-02-22T14:09:21.474Z,32.37
2018-02-22T14:11:48.979Z,37.97
2018-02-22T14:14:16.471Z,34.17
2018-02-22T14:16:43.977Z,37.90
2018-02-22T14:19:11.461Z,33.47
2018-02-22T14:21:39.261Z,30.30
2018-02-22T14:24:06.763Z,32.27
2018-02-22T14:26:34.985Z,32.20
2018-02-22T14:29:02.463Z,32.00
2018-02-22T14:31:29.924Z,36.00
2018-02-22T14:33:57.395Z,36.00
2018-02-22T14:36:24.859Z,26.00
2018-02-22T14:38:53.777Z,32.07
2018-02-22T14:41:21.340Z,31.27
2018-02-22T14:43:48.838Z,35.70
2018-02-22T14:46:16.320Z,32.07
2018-02-22T14:48:43.805Z,33.83
2018-02-22T14:51:12.067Z,31.27
2018-02-22T14:53:40.334Z,31.43
2018-02-22T14:56:07.797Z,29.83
2018-02-22T14:58:35.300Z,28.13
2018-02-22T15:01:09.522Z,31.30
2018-02-22T15:03:37.028Z,29.10
2018-02-22T15:06:05.281Z,35.17
2018-02-22T15:08:32.796Z,32.83
2018-02-22T15:11:00.277Z,33.70
2018-02-22T15:13:27.810Z,32.23
2018-02-22T15:15:55.432Z,33.70
2018-02-22T15:18:22.949Z,32.27
2018-02-22T15:20:50.570Z,28.63
2018-02-22T15:23:18.036Z,31.47
2018-02-22T15:25:46.289Z,32.47
2018-02-22T15:28:13.799Z,35.97
2018-02-22T15:33:15.114Z,31.80
2018-02-22T15:35:43.292Z,34.30
2018-02-22T15:38:10.812Z,33.93
2018-02-22T15:40:38.390Z,34.90
2018-02-22T15:43:05.878Z,29.10
2018-02-22T15:45:33.438Z,35.50
2018-02-22T15:48:01.735Z,40.03
2018-02-22T15:50:29.229Z,33.87
2018-02-22T15:52:56.760Z,33.17
2018-02-22T15:55:24.247Z,34.63
2018-02-22T15:57:51.748Z,35.37
2018-02-22T16:00:20.010Z,30.00
2018-02-22T16:02:47.501Z,35.27
2018-02-22T16:05:15.022Z,34.57
2018-02-22T16:07:42.540Z,32.50
2018-02-22T16:10:10.053Z,32.97
2018-02-22T16:12:37.546Z,36.20
2018-02-22T16:15:05.045Z,31.43
2018-02-22T16:17:32.524Z,33.17
2018-02-22T16:20:00.786Z,38.17
2018-02-22T16:22:28.272Z,30.47
2018-02-22T16:24:56.541Z,36.57
2018-02-22T16:27:24.778Z,36.43
2018-02-22T16:29:52.668Z,34.10
2018-02-22T16:32:20.152Z,35.60
2018-02-22T16:34:48.409Z,34.93
2018-02-22T16:37:15.876Z,34.53
2018-02-22T16:39:44.124Z,34.60
2018-02-22T16:42:11.583Z,34.53
2018-02-22T16:44:39.053Z,32.87
2018-02-22T16:47:06.562Z,30.40
2018-02-22T16:49:34.020Z,36.43
2018-02-22T16:52:01.484Z,31.33
2018-02-22T16:54:28.978Z,30.10
2018-02-22T16:56:56.439Z,34.07
2018-02-22T16:59:23.923Z,31.83
2018-02-22T17:01:52.149Z,33.23
2018-02-22T17:04:19.620Z,30.80
2018-02-22T17:06:47.092Z,34.90
2018-02-22T17:09:14.571Z,29.67
2018-02-22T17:11:42.876Z,29.03
2018-02-22T17:14:10.377Z,28.97
2018-02-22T17:16:37.895Z,30.63
2018-02-22T17:19:05.367Z,36.67
2018-02-22T17:21:32.835Z,29.93
2018-02-22T17:24:00.296Z,31.43
2018-02-22T17:26:33.676Z,38.07
2018-02-22T17:29:06.919Z,29.13
2018-02-22T17:31:40.005Z,28.10
2018-02-22T17:34:09.957Z,29.63
2018-02-22T17:36:41.271Z,34.23
2018-02-22T17:42:10.682Z,26.83
2018-02-22T17:44:38.238Z,30.27
2018-02-22T17:47:05.739Z,31.37
2018-02-22T17:49:33.298Z,29.20
2018-02-22T17:52:00.812Z,29.30
2018-02-22T17:54:28.323Z,32.37
2018-02-22T17:56:55.818Z,25.83
2018-02-22T17:59:23.307Z,27.83
2018-02-22T18:01:51.615Z,25.07
2018-02-22T18:04:19.092Z,27.40
2018-02-22T18:06:46.605Z,30.63
2018-02-22T18:09:15.048Z,29.57
2018-02-22T18:11:43.335Z,27.83
2018-02-22T18:14:10.949Z,24.63
2018-02-22T18:16:38.494Z,28.77
2018-02-22T18:19:06.019Z,26.67
2018-02-22T18:21:33.580Z,25.33
2018-02-22T18:24:01.104Z,29.03
2018-02-22T18:26:28.598Z,29.20
2018-02-22T18:28:56.126Z,26.80
2018-02-22T18:31:23.664Z,30.83
2018-02-22T18:33:51.181Z,25.70
2018-02-22T18:36:18.692Z,27.60
2018-02-22T18:38:51.867Z,26.43
2018-02-22T18:41:19.451Z,29.97
2018-02-22T18:43:46.973Z,25.93
2018-02-22T18:46:14.490Z,26.13
2018-02-22T18:48:42.013Z,30.90
2018-02-22T18:51:09.548Z,32.27
2018-02-22T18:53:37.822Z,28.43
2018-02-22T18:56:06.098Z,24.47
2018-02-22T18:58:34.365Z,29.27
2018-02-22T19:01:01.880Z,26.47
2018-02-22T19:03:29.421Z,30.90
2018-02-22T19:05:56.983Z,25.10
2018-02-22T19:08:24.479Z,29.83
2018-02-22T19:10:52.010Z,32.23
2018-02-22T19:13:19.438Z,28.97
2018-02-22T19:15:48.145Z,28.60
2018-02-22T19:18:15.618Z,27.20
2018-02-22T19:20:43.122Z,29.37
2018-02-22T19:23:11.875Z,32.13
2018-02-22T19:25:39.985Z,31.03
2018-02-22T19:28:07.471Z,31.53
2018-02-22T19:30:34.950Z,30.17
2018-02-22T19:33:02.416Z,31.23
2018-02-22T19:35:30.250Z,31.40
2018-02-22T19:37:57.738Z,27.43
2018-02-22T19:40:25.237Z,36.27
2018-02-22T19:42:53.641Z,27.83
2018-02-22T19:45:21.168Z,34.23
2018-02-22T19:47:49.649Z,30.40
2018-02-22T19:50:17.336Z,33.53
2018-02-22T19:52:45.723Z,30.77
2018-02-22T19:55:13.297Z,30.20
2018-02-22T19:57:40.807Z,31.63
2018-02-22T20:00:08.549Z,29.23
2018-02-22T20:02:36.919Z,33.20
2018-02-22T20:05:04.554Z,31.37
2018-02-22T20:07:32.083Z,25.87
2018-02-22T20:09:59.910Z,30.57
2018-02-22T20:12:27.507Z,28.13
2018-02-22T20:14:55.913Z,34.50
2018-02-22T20:17:23.628Z,25.00
2018-02-22T20:19:51.101Z,38.30
2018-02-22T20:22:18.613Z,31.93
2018-02-22T20:24:46.105Z,28.40
2018-02-22T20:27:13.567Z,37.53
2018-02-22T20:29:41.042Z,27.70
2018-02-22T20:32:08.512Z,33.60
2018-02-22T20:34:36.759Z,26.97
2018-02-22T20:37:04.231Z,29.43
2018-02-22T20:39:31.693Z,29.87
2018-02-22T20:41:59.970Z,29.80
2018-02-22T20:44:28.210Z,28.13
2018-02-22T20:46:55.677Z,34.70
2018-02-22T20:49:23.136Z,33.10
2018-02-22T20:51:53.061Z,35.10
2018-02-22T20:54:20.537Z,31.57
2018-02-22T20:56:48.787Z,34.77
2018-02-22T20:59:16.247Z,28.57
2018-02-22T21:01:43.763Z,33.50
2018-02-22T21:04:14.662Z,32.47
2018-02-22T21:06:42.140Z,36.40
2018-02-22T21:09:10.373Z,30.53
2018-02-22T21:11:37.839Z,30.87
2018-02-22T21:14:05.305Z,27.70
2018-02-22T21:16:32.784Z,34.90
2018-02-22T21:19:01.018Z,34.33
2018-02-22T21:21:28.517Z,29.67
2018-02-22T21:23:56.734Z,34.20
2018-02-22T21:26:24.208Z,35.03
2018-02-22T21:28:51.669Z,33.57
2018-02-22T21:31:19.140Z,31.83
2018-02-22T21:33:46.599Z,32.40
2018-02-22T21:36:14.071Z,35.30
2018-02-22T21:38:42.328Z,32.20
2018-02-22T21:41:09.783Z,35.00
2018-02-22T21:43:37.346Z,34.00
2018-02-22T21:46:04.800Z,34.80
2018-02-22T21:48:32.275Z,30.80
2018-02-22T21:51:00.541Z,30.83
2018-02-22T21:53:28.027Z,29.37
2018-02-22T21:55:56.271Z,32.30
2018-02-22T21:58:23.741Z,35.90
2018-02-22T22:00:51.205Z,38.83
2018-02-22T22:03:19.442Z,35.40
2018-02-22T22:05:46.908Z,40.17
2018-02-22T22:08:14.388Z,33.27
2018-02-22T22:10:42.640Z,35.50
2018-02-22T22:13:10.140Z,37.00
2018-02-22T22:15:38.359Z,35.17
2018-02-22T22:18:05.819Z,37.90
2018-02-22T22:20:33.287Z,32.57
2018-02-22T22:23:00.774Z,36.10
2018-02-22T22:25:29.000Z,34.90
2018-02-22T22:27:56.467Z,30.07
2018-02-22T22:30:23.928Z,33.20
2018-02-22T22:32:51.404Z,33.73
2018-02-22T22:35:18.865Z,33.77
2018-02-22T22:37:46.329Z,29.83
2018-02-22T22:40:13.785Z,34.63
2018-02-22T22:42:41.256Z,31.77
2018-02-22T22:45:09.481Z,33.67
2018-02-22T22:47:36.945Z,34.60
2018-02-22T22:50:04.409Z,32.27
2018-02-22T22:52:31.901Z,31.23
2018-02-22T22:54:59.397Z,34.23
2018-02-22T22:57:26.858Z,32.80
2018-02-22T22:59:54.321Z,32.03
2018-02-22T23:02:21.814Z,34.17
2018-02-22T23:04:49.286Z,30.80
2018-02-22T23:07:16.777Z,33.60
2018-02-22T23:09:44.233Z,32.20
2018-02-22T23:12:11.725Z,30.70
2018-02-22T23:14:39.177Z,28.27
2018-02-22T23:17:06.641Z,35.00
2018-02-22T23:19:34.104Z,31.00
2018-02-22T23:22:01.561Z,27.57
2018-02-22T23:24:29.078Z,28.97
2018-02-22T23:26:56.508Z,33.80
2018-02-22T23:29:24.743Z,31.33
2018-02-22T23:31:52.213Z,32.60
2018-02-22T23:34:19.684Z,29.73
2018-02-22T23:36:47.142Z,35.30
2018-02-22T23:39:14.610Z,32.87
2018-02-22T23:41:46.714Z,28.90
2018-02-22T23:44:14.181Z,34.33
2018-02-22T23:46:41.637Z,29.60
2018-02-22T23:49:09.103Z,34.63
2018-02-22T23:51:36.566Z,32.20
2018-02-22T23:54:04.037Z,37.97
2018-02-22T23:56:31.503Z,36.40
2018-02-22T23:58:58.972Z,34.27
